Time;durP1;ratioP1;P1;durP2;ratioP2;P2;SDS_P1;SDS_P2;PMS_P1;PMS_P2;Temp;Humidity;BMP_temperature;BMP_pressure;BME280_temperature;BME280_humidity;BME280_pressure;Samples;Min_cycle;Max_cycle;Signal;HPM_P1;HPM_P2
2023/12/27 00:02:57;;;;;;;1.65;1.45;;;;;;;7.16;100.00;100120.91;6307268;28;20105;-70
2023/12/27 00:05:58;;;;;;;3.78;1.33;;;;;;;7.03;100.00;100125.81;6313747;28;20499;-75
2023/12/27 00:09:00;;;;;;;1.92;1.38;;;;;;;6.90;100.00;100122.13;6320604;28;20048;-70
2023/12/27 00:12:01;;;;;;;7.00;1.90;;;;;;;6.91;100.00;100134.16;6319635;28;20052;-75
2023/12/27 00:15:02;;;;;;;3.92;2.47;;;;;;;6.98;100.00;100137.31;6326218;28;20130;-70
2023/12/27 00:18:03;;;;;;;5.10;2.47;;;;;;;6.92;100.00;100132.41;6303328;28;20098;-71
2023/12/27 00:21:04;;;;;;;4.57;2.08;;;;;;;6.85;100.00;100139.63;6304430;28;20059;-70
2023/12/27 00:24:06;;;;;;;3.65;1.60;;;;;;;6.88;100.00;100141.22;6306915;28;20044;-71
2023/12/27 00:27:07;;;;;;;2.17;1.10;;;;;;;6.81;100.00;100151.03;6315768;28;20041;-76
2023/12/27 00:30:10;;;;;;;1.38;1.10;;;;;;;6.85;100.00;100155.19;6320271;28;20139;-70
2023/12/27 00:33:13;;;;;;;1.38;1.23;;;;;;;6.80;100.00;100162.34;6316690;28;20082;-70
2023/12/27 00:36:19;;;;;;;4.18;1.40;;;;;;;6.78;100.00;100171.94;6304356;28;20043;-71
2023/12/27 00:39:23;;;;;;;1.55;1.25;;;;;;;6.68;100.00;100160.28;6311557;28;20512;-75
2023/12/27 00:42:24;;;;;;;4.22;2.13;;;;;;;6.69;100.00;100172.31;6322009;28;20052;-75
2023/12/27 00:45:28;;;;;;;3.28;1.70;;;;;;;6.63;100.00;100178.59;6325682;28;20516;-75
2023/12/27 00:48:28;;;;;;;2.33;1.33;;;;;;;6.56;100.00;100182.38;6319055;28;20500;-76
2023/12/27 00:51:32;;;;;;;1.45;1.25;;;;;;;6.53;100.00;100179.91;6312212;28;20076;-76
2023/12/27 00:54:33;;;;;;;1.65;1.08;;;;;;;6.53;100.00;100185.94;6310542;28;20134;-75
2023/12/27 00:57:36;;;;;;;1.55;1.08;;;;;;;6.56;100.00;100178.03;6321899;28;20516;-76
2023/12/27 01:00:37;;;;;;;1.90;1.10;;;;;;;6.48;100.00;100187.03;6320196;28;20048;-75
2023/12/27 01:03:38;;;;;;;1.35;1.17;;;;;;;6.38;100.00;100195.22;6306017;28;20100;-75
2023/12/27 01:06:39;;;;;;;1.77;1.27;;;;;;;6.33;100.00;100191.94;6323166;28;20059;-71
2023/12/27 01:09:40;;;;;;;3.70;1.58;;;;;;;6.26;100.00;100203.50;6315755;28;20397;-75
2023/12/27 01:12:41;;;;;;;4.07;1.35;;;;;;;6.36;100.00;100207.38;6310669;28;20049;-74
2023/12/27 01:15:42;;;;;;;2.55;1.33;;;;;;;6.33;100.00;100204.06;6319213;28;20051;-75
2023/12/27 01:18:43;;;;;;;2.65;1.55;;;;;;;6.17;100.00;100214.22;6312288;28;20479;-75
2023/12/27 01:21:43;;;;;;;3.85;1.63;;;;;;;6.05;100.00;100219.00;6309477;28;20450;-70
2023/12/27 01:24:44;;;;;;;2.58;1.13;;;;;;;6.09;100.00;100218.84;6311189;28;20040;-75
2023/12/27 01:27:46;;;;;;;7.20;1.23;;;;;;;6.01;100.00;100225.19;6319767;28;20055;-75
2023/12/27 01:30:47;;;;;;;3.22;1.20;;;;;;;6.07;100.00;100231.84;6317490;28;20369;-75
2023/12/27 01:33:48;;;;;;;2.20;0.98;;;;;;;6.10;100.00;100236.94;6321279;28;20052;-75
2023/12/27 01:36:49;;;;;;;2.70;1.20;;;;;;;6.01;100.00;100242.47;6310587;28;20048;-70
2023/12/27 01:39:49;;;;;;;1.85;1.30;;;;;;;5.94;100.00;100247.00;6316220;28;20053;-75
2023/12/27 01:42:52;;;;;;;4.43;1.40;;;;;;;5.88;100.00;100257.59;6313663;28;20059;-76
2023/12/27 01:45:56;;;;;;;2.75;1.50;;;;;;;5.92;100.00;100254.00;6311609;28;20163;-75
2023/12/27 01:49:01;;;;;;;1.70;1.15;;;;;;;5.78;100.00;100249.34;6317536;28;20135;-76
2023/12/27 01:52:03;;;;;;;2.47;1.38;;;;;;;5.76;100.00;100258.91;6319589;28;20123;-76
2023/12/27 01:55:04;;;;;;;1.57;1.33;;;;;;;5.86;100.00;100264.59;6298434;28;20051;-70
2023/12/27 01:58:10;;;;;;;1.65;1.10;;;;;;;5.79;100.00;100265.75;6301715;28;20059;-71
2023/12/27 02:01:15;;;;;;;1.35;1.00;;;;;;;5.73;100.00;100276.31;6307905;28;20923;-75
2023/12/27 02:04:15;;;;;;;2.65;1.20;;;;;;;5.71;100.00;100273.78;6305021;28;20480;-75
2023/12/27 02:07:20;;;;;;;1.73;1.48;;;;;;;5.70;100.00;100272.09;6302476;28;20060;-75
2023/12/27 02:10:21;;;;;;;1.23;0.93;;;;;;;5.73;100.00;100271.97;6321235;28;20476;-76
2023/12/27 02:13:23;;;;;;;3.40;1.15;;;;;;;5.61;100.00;100264.69;6321940;28;20086;-75
2023/12/27 02:16:27;;;;;;;1.52;1.20;;;;;;;5.69;100.00;100279.94;6316945;28;20052;-75
2023/12/27 02:19:28;;;;;;;1.90;1.30;;;;;;;5.62;100.00;100264.63;6307173;28;20052;-75
2023/12/27 02:22:35;;;;;;;1.65;1.15;;;;;;;5.77;100.00;100273.56;6296512;28;20044;-75
2023/12/27 02:25:37;;;;;;;2.08;1.02;;;;;;;5.71;100.00;100266.03;6304464;28;20052;-76
2023/12/27 02:28:37;;;;;;;2.35;1.20;;;;;;;5.83;100.00;100275.91;6304657;28;20048;-71
2023/12/27 02:31:39;;;;;;;2.03;1.25;;;;;;;5.81;100.00;100282.91;6311980;28;20094;-71
2023/12/27 02:34:40;;;;;;;3.80;1.15;;;;;;;5.69;100.00;100285.09;6302138;28;20072;-71
2023/12/27 02:37:43;;;;;;;3.42;1.25;;;;;;;5.61;100.00;100282.78;6311081;28;20042;-71
2023/12/27 02:40:44;;;;;;;1.80;1.17;;;;;;;5.58;100.00;100288.94;6320007;28;20044;-76
2023/12/27 02:43:45;;;;;;;1.35;0.98;;;;;;;5.72;100.00;100282.38;6316713;28;20044;-76
2023/12/27 02:46:46;;;;;;;2.28;1.02;;;;;;;5.67;100.00;100281.72;6310319;28;20491;-75
2023/12/27 02:49:47;;;;;;;3.13;1.02;;;;;;;5.71;100.00;100288.47;6308778;28;20071;-71
2023/12/27 02:52:48;;;;;;;2.30;1.02;;;;;;;5.64;100.00;100296.47;6313945;28;20048;-76
2023/12/27 02:55:49;;;;;;;1.35;1.02;;;;;;;5.61;100.00;100295.75;6298988;28;20056;-76
2023/12/27 02:58:50;;;;;;;3.35;1.10;;;;;;;5.69;100.00;100300.66;6303140;28;20041;-70
2023/12/27 03:01:51;;;;;;;1.50;0.90;;;;;;;5.62;100.00;100305.19;6336926;27;20412;-71
2023/12/27 03:04:52;;;;;;;1.33;0.80;;;;;;;5.70;100.00;100302.31;6318381;28;20051;-76
2023/12/27 03:07:53;;;;;;;2.65;1.40;;;;;;;5.63;100.00;100305.13;6307990;28;20055;-71
2023/12/27 03:10:55;;;;;;;2.97;1.20;;;;;;;5.57;100.00;100295.00;6298020;28;20487;-71
2023/12/27 03:13:56;;;;;;;5.28;1.50;;;;;;;5.57;100.00;100301.94;6309629;28;20412;-76
2023/12/27 03:16:57;;;;;;;2.30;1.27;;;;;;;5.53;100.00;100297.75;6311621;28;20054;-71
2023/12/27 03:19:58;;;;;;;1.70;1.20;;;;;;;5.50;100.00;100293.53;6308384;28;20047;-71
2023/12/27 03:22:59;;;;;;;1.95;1.02;;;;;;;5.44;100.00;100294.59;6305340;28;20078;-76
2023/12/27 03:26:00;;;;;;;1.23;1.13;;;;;;;5.41;100.00;100288.69;6304739;28;20535;-76
2023/12/27 03:29:00;;;;;;;5.05;1.23;;;;;;;5.43;100.00;100292.91;6310149;28;20190;-71
2023/12/27 03:32:02;;;;;;;1.75;1.08;;;;;;;5.50;100.00;100298.72;6319867;28;20059;-71
2023/12/27 03:35:03;;;;;;;2.03;1.38;;;;;;;5.45;100.00;100300.63;6298544;28;20097;-71
2023/12/27 03:38:06;;;;;;;5.57;1.45;;;;;;;5.46;100.00;100291.97;6311496;28;20059;-71
2023/12/27 03:41:09;;;;;;;1.30;1.15;;;;;;;5.43;100.00;100290.31;6315919;28;20044;-71
2023/12/27 03:44:09;;;;;;;1.60;1.23;;;;;;;5.36;100.00;100303.56;6302930;28;20044;-71
2023/12/27 03:47:10;;;;;;;1.60;1.00;;;;;;;5.29;100.00;100297.72;6308672;28;20202;-70
2023/12/27 03:50:12;;;;;;;2.28;1.23;;;;;;;5.34;100.00;100301.00;6309544;28;20074;-71
2023/12/27 03:53:13;;;;;;;1.77;0.88;;;;;;;5.20;100.00;100296.31;6310200;28;20045;-71
2023/12/27 03:56:14;;;;;;;1.67;0.95;;;;;;;5.20;100.00;100304.06;6304252;28;20048;-71
2023/12/27 03:59:15;;;;;;;3.47;0.98;;;;;;;5.16;100.00;100310.25;6299350;28;20060;-75
2023/12/27 04:02:16;;;;;;;1.70;1.10;;;;;;;5.18;100.00;100315.38;6311236;28;20056;-71
2023/12/27 04:05:16;;;;;;;1.27;0.95;;;;;;;5.20;100.00;100318.75;6313219;28;21505;-76
2023/12/27 04:08:17;;;;;;;1.67;1.10;;;;;;;5.30;100.00;100311.53;6307174;28;20115;-75
2023/12/27 04:11:18;;;;;;;3.55;1.20;;;;;;;5.31;100.00;100315.78;6294990;28;20473;-71
2023/12/27 04:14:19;;;;;;;2.05;1.02;;;;;;;5.20;100.00;100324.75;6304059;28;20054;-75
2023/12/27 04:17:20;;;;;;;2.42;1.00;;;;;;;5.19;100.00;100323.09;6309728;28;20072;-76
2023/12/27 04:20:23;;;;;;;1.10;0.98;;;;;;;5.22;100.00;100341.09;6320195;28;20079;-76
2023/12/27 04:23:24;;;;;;;2.53;1.20;;;;;;;5.32;100.00;100344.19;6303695;28;20041;-71
2023/12/27 04:26:25;;;;;;;2.35;0.90;;;;;;;5.27;100.00;100343.50;6298407;28;20048;-71
2023/12/27 04:29:26;;;;;;;1.00;0.90;;;;;;;5.19;100.00;100348.13;6319427;28;20408;-71
2023/12/27 04:32:27;;;;;;;3.55;1.10;;;;;;;5.18;100.00;100355.00;6312372;28;20044;-71
2023/12/27 04:35:28;;;;;;;2.38;1.00;;;;;;;5.22;100.00;100356.59;6300563;28;20485;-71
2023/12/27 04:38:29;;;;;;;3.00;0.70;;;;;;;5.15;100.00;100362.06;6298144;28;20098;-76
2023/12/27 04:41:30;;;;;;;1.10;0.95;;;;;;;5.18;100.00;100355.00;6296658;28;20056;-71
2023/12/27 04:44:31;;;;;;;1.48;0.80;;;;;;;5.14;100.00;100368.94;6311699;28;20067;-76
2023/12/27 04:47:31;;;;;;;1.40;1.02;;;;;;;5.16;100.00;100374.91;6311853;28;20055;-71
2023/12/27 04:50:32;;;;;;;1.08;0.85;;;;;;;5.05;100.00;100371.84;6309310;28;20052;-76
2023/12/27 04:53:35;;;;;;;0.95;0.93;;;;;;;5.05;100.00;100377.03;6321441;28;20052;-75
2023/12/27 04:56:36;;;;;;;1.85;1.10;;;;;;;5.03;100.00;100381.41;6314564;28;20051;-71
2023/12/27 04:59:37;;;;;;;1.52;0.90;;;;;;;5.12;100.00;100394.03;6298774;28;20052;-71
2023/12/27 05:02:38;;;;;;;3.35;1.55;;;;;;;5.02;100.00;100397.81;6303882;28;20052;-76
2023/12/27 05:05:39;;;;;;;1.50;1.20;;;;;;;4.98;100.00;100389.31;6312504;28;20062;-75
2023/12/27 05:08:41;;;;;;;4.57;1.10;;;;;;;5.10;100.00;100393.22;6315090;28;20127;-76
2023/12/27 05:11:42;;;;;;;2.30;1.60;;;;;;;5.05;100.00;100397.72;6319789;28;20076;-75
2023/12/27 05:14:44;;;;;;;3.13;1.20;;;;;;;5.00;100.00;100402.19;6314401;28;20059;-76
2023/12/27 05:17:45;;;;;;;2.83;1.00;;;;;;;4.94;100.00;100398.06;6306132;28;20392;-71
2023/12/27 05:20:46;;;;;;;4.93;1.63;;;;;;;4.86;100.00;100410.41;6319105;28;20048;-71
2023/12/27 05:23:47;;;;;;;3.63;1.95;;;;;;;4.85;100.00;100412.13;6298715;28;20045;-75
2023/12/27 05:26:53;;;;;;;5.82;2.83;;;;;;;4.90;100.00;100418.88;6297483;28;20056;-75
2023/12/27 05:29:55;;;;;;;14.57;7.20;;;;;;;4.93;100.00;100423.97;6306127;28;20048;-75
2023/12/27 05:32:56;;;;;;;6.35;2.33;;;;;;;4.85;100.00;100432.81;6311901;28;20063;-71
2023/12/27 05:35:57;;;;;;;8.20;3.30;;;;;;;4.98;100.00;100435.00;6311853;28;20044;-76
2023/12/27 05:38:58;;;;;;;4.80;1.90;;;;;;;4.96;100.00;100442.84;6297273;28;20113;-71
2023/12/27 05:41:59;;;;;;;4.90;2.90;;;;;;;4.96;100.00;100449.72;6316785;28;20056;-72
2023/12/27 05:45:00;;;;;;;3.58;2.42;;;;;;;4.93;100.00;100455.00;6320075;28;20040;-71
2023/12/27 05:48:01;;;;;;;4.63;1.80;;;;;;;5.00;100.00;100462.53;6319814;28;20093;-71
2023/12/27 05:51:04;;;;;;;2.72;1.60;;;;;;;5.01;100.00;100463.38;6322547;28;20783;-75
2023/12/27 05:54:05;;;;;;;1.73;1.42;;;;;;;5.04;100.00;100464.13;6305351;28;20047;-76
2023/12/27 05:57:06;;;;;;;1.40;1.08;;;;;;;4.92;100.00;100471.41;6321297;28;20059;-71
2023/12/27 06:00:08;;;;;;;2.05;1.70;;;;;;;5.01;100.00;100473.72;6319535;28;20063;-72
2023/12/27 06:03:10;;;;;;;3.00;2.05;;;;;;;4.88;100.00;100469.81;6300549;28;20833;-71
2023/12/27 06:06:11;;;;;;;7.57;2.08;;;;;;;5.11;100.00;100477.72;6317875;28;20060;-71
2023/12/27 06:09:12;;;;;;;4.10;2.20;;;;;;;5.07;100.00;100478.69;6322888;28;20067;-71
2023/12/27 06:12:13;;;;;;;2.78;2.08;;;;;;;5.05;100.00;100485.66;6320381;28;20567;-71
2023/12/27 06:15:14;;;;;;;2.58;1.27;;;;;;;5.11;100.00;100494.97;6318433;28;20037;-76
2023/12/27 06:18:15;;;;;;;2.20;1.50;;;;;;;5.22;100.00;100491.13;6322816;28;20461;-71
2023/12/27 06:21:16;;;;;;;2.22;1.73;;;;;;;5.27;100.00;100498.75;6322993;28;20056;-76
2023/12/27 06:24:17;;;;;;;2.60;1.70;;;;;;;5.14;100.00;100506.06;6322429;28;20097;-75
2023/12/27 06:27:18;;;;;;;2.45;1.58;;;;;;;5.28;100.00;100507.38;6311190;28;20139;-76
2023/12/27 06:30:19;;;;;;;5.68;1.85;;;;;;;5.29;100.00;100509.91;6296282;28;20127;-76
2023/12/27 06:33:20;;;;;;;2.20;1.70;;;;;;;5.43;100.00;100522.41;6301476;28;20463;-75
2023/12/27 06:36:22;;;;;;;4.78;1.95;;;;;;;5.35;100.00;100516.63;6313971;28;20096;-76
2023/12/27 06:39:23;;;;;;;3.63;2.47;;;;;;;5.38;100.00;100526.88;6320539;28;20139;-76
2023/12/27 06:42:24;;;;;;;2.08;1.40;;;;;;;5.45;100.00;100536.97;6320475;28;20059;-71
2023/12/27 06:45:25;;;;;;;1.80;1.48;;;;;;;5.49;100.00;100542.06;6319506;28;20488;-71
2023/12/27 06:48:28;;;;;;;2.95;1.65;;;;;;;5.46;100.00;100553.38;6319932;28;20139;-71
2023/12/27 06:51:29;;;;;;;3.72;2.00;;;;;;;5.41;100.00;100558.66;6318533;28;20515;-76
2023/12/27 06:54:30;;;;;;;6.32;2.70;;;;;;;5.48;100.00;100577.47;6314381;28;20179;-76
2023/12/27 06:57:31;;;;;;;7.03;2.78;;;;;;;5.47;100.00;100569.75;6309307;28;20139;-76
2023/12/27 07:00:32;;;;;;;8.40;2.95;;;;;;;5.45;100.00;100580.97;6295555;28;20056;-76
2023/12/27 07:03:35;;;;;;;7.85;3.03;;;;;;;5.48;100.00;100581.78;6299729;28;20451;-76
2023/12/27 07:06:39;;;;;;;8.80;4.00;;;;;;;5.52;100.00;100598.91;6319624;28;20117;-76
2023/12/27 07:09:42;;;;;;;7.60;2.92;;;;;;;5.41;100.00;100600.06;6317263;28;20426;-76
2023/12/27 07:12:43;;;;;;;4.05;2.70;;;;;;;5.44;100.00;100612.09;6318030;28;20517;-76
2023/12/27 07:15:46;;;;;;;9.52;3.05;;;;;;;5.57;100.00;100609.97;6318152;28;20047;-76
2023/12/27 07:18:47;;;;;;;3.90;2.45;;;;;;;5.55;100.00;100609.16;6293295;28;20052;-72
2023/12/27 07:21:48;;;;;;;4.50;2.05;;;;;;;5.56;100.00;100624.66;6302733;28;20150;-76
2023/12/27 07:24:49;;;;;;;7.55;3.20;;;;;;;5.82;100.00;100617.81;6318338;28;20087;-72
2023/12/27 07:27:50;;;;;;;5.05;2.35;;;;;;;5.87;100.00;100631.47;6320035;28;20055;-71
2023/12/27 07:30:53;;;;;;;3.58;1.70;;;;;;;5.83;100.00;100632.47;6312645;28;20052;-72
2023/12/27 07:33:59;;;;;;;3.20;1.35;;;;;;;5.70;100.00;100644.94;6317974;28;20488;-71
2023/12/27 07:37:00;;;;;;;1.20;1.05;;;;;;;5.70;100.00;100654.44;6316792;28;20044;-76
2023/12/27 07:40:02;;;;;;;5.70;1.48;;;;;;;5.84;100.00;100652.25;6318035;28;20056;-76
2023/12/27 07:43:05;;;;;;;2.05;1.25;;;;;;;5.96;100.00;100656.25;6319482;28;20048;-76
2023/12/27 07:46:07;;;;;;;;;;;;;;;6.02;100.00;100656.03;6319544;28;20048;-76
2023/12/27 07:49:08;;;;;;;6.90;1.65;;;;;;;6.18;100.00;100672.78;6318062;28;19927;-76
2023/12/27 07:52:09;;;;;;;3.17;1.88;;;;;;;6.20;100.00;100680.53;6319236;28;20048;-73
2023/12/27 07:55:10;;;;;;;3.30;2.22;;;;;;;6.31;100.00;100682.75;6318370;28;20040;-76
2023/12/27 07:58:11;;;;;;;4.43;2.20;;;;;;;6.48;100.00;100695.13;6308041;28;20419;-76
2023/12/27 08:01:12;;;;;;;2.33;1.60;;;;;;;6.54;100.00;100694.94;6310489;28;20063;-76
2023/12/27 08:04:13;;;;;;;2.03;1.40;;;;;;;6.64;100.00;100693.72;6298800;28;20048;-75
2023/12/27 08:07:14;;;;;;;2.17;1.70;;;;;;;6.77;100.00;100701.91;6305647;28;20539;-72
2023/12/27 08:10:15;;;;;;;4.78;1.98;;;;;;;6.93;100.00;100700.47;6310223;28;20416;-73
2023/12/27 08:13:16;;;;;;;10.27;5.15;;;;;;;7.00;100.00;100724.44;6314441;28;20116;-72
2023/12/27 08:16:17;;;;;;;8.27;4.43;;;;;;;7.20;100.00;100727.16;6306595;28;20056;-71
2023/12/27 08:19:18;;;;;;;3.50;1.60;;;;;;;7.50;100.00;100736.50;6302740;28;20056;-72
2023/12/27 08:22:20;;;;;;;4.65;1.83;;;;;;;7.66;98.90;100735.03;6308844;28;20347;-72
2023/12/27 08:25:21;;;;;;;3.17;2.17;;;;;;;7.95;97.19;100735.63;6321584;28;20048;-72
2023/12/27 08:28:23;;;;;;;4.45;2.05;;;;;;;8.05;95.91;100749.94;6322724;28;20059;-71
2023/12/27 08:31:23;;;;;;;4.27;2.00;;;;;;;8.28;93.86;100746.47;6323749;28;20052;-73
2023/12/27 08:34:24;;;;;;;2.10;1.55;;;;;;;8.24;93.66;100750.09;6324386;28;20126;-72
2023/12/27 08:37:25;;;;;;;6.82;2.40;;;;;;;8.39;92.02;100749.47;6322588;28;20048;-72
2023/12/27 08:40:26;;;;;;;5.90;2.53;;;;;;;8.57;91.29;100752.25;6322663;28;20059;-72
2023/12/27 08:43:29;;;;;;;2.17;1.35;;;;;;;8.51;91.56;100748.16;6324083;28;20055;-71
2023/12/27 08:46:31;;;;;;;4.90;2.28;;;;;;;8.38;91.44;100753.00;6322100;28;20055;-76
2023/12/27 08:49:32;;;;;;;2.75;1.70;;;;;;;8.56;92.21;100754.00;6323993;28;20519;-76
2023/12/27 08:52:35;;;;;;;2.97;1.90;;;;;;;8.42;90.79;100765.00;6311683;28;20051;-71
2023/12/27 08:55:36;;;;;;;2.58;2.00;;;;;;;8.40;91.95;100768.50;6300429;28;20181;-71
2023/12/27 08:58:37;;;;;;;3.63;1.50;;;;;;;8.59;91.57;100779.91;6304244;28;20048;-76
2023/12/27 09:01:41;;;;;;;2.25;1.23;;;;;;;8.66;92.07;100796.09;6301853;28;20130;-76
2023/12/27 09:04:41;;;;;;;2.33;1.30;;;;;;;8.68;91.65;100794.28;6311668;28;20051;-72
2023/12/27 09:07:43;;;;;;;1.40;1.30;;;;;;;8.61;92.41;100790.25;6309570;28;20052;-72
2023/12/27 09:10:44;;;;;;;3.90;2.10;;;;;;;8.23;92.38;100809.03;6316351;28;20044;-76
2023/12/27 09:13:45;;;;;;;3.17;1.88;;;;;;;8.78;91.56;100807.75;6300108;28;20056;-71
2023/12/27 09:16:46;;;;;;;6.35;2.15;;;;;;;8.80;92.16;100808.53;6305599;28;20052;-77
2023/12/27 09:19:47;;;;;;;2.50;1.85;;;;;;;8.84;92.26;100808.34;6308313;28;20059;-76
2023/12/27 09:22:48;;;;;;;3.80;1.98;;;;;;;8.87;92.58;100812.56;6303532;28;20044;-71
2023/12/27 09:25:49;;;;;;;8.07;2.00;;;;;;;8.73;91.61;100823.56;6312739;28;20127;-72
2023/12/27 09:28:50;;;;;;;1.88;1.45;;;;;;;8.56;91.80;100826.00;6308759;28;20534;-76
2023/12/27 09:31:51;;;;;;;3.03;1.70;;;;;;;8.50;93.38;100821.88;6310177;28;20415;-76
2023/12/27 09:34:52;;;;;;;3.72;1.80;;;;;;;8.62;92.71;100817.94;6304586;28;20041;-76
2023/12/27 09:37:53;;;;;;;2.58;1.20;;;;;;;8.80;92.77;100827.59;6303418;28;20048;-72
2023/12/27 09:40:56;;;;;;;4.95;1.10;;;;;;;8.61;93.47;100818.88;6311165;28;20130;-76
2023/12/27 09:43:59;;;;;;;2.13;1.42;;;;;;;8.82;90.81;100823.16;6310202;28;20052;-76
2023/12/27 09:47:04;;;;;;;1.80;1.48;;;;;;;8.81;91.72;100829.31;6312717;28;20067;-72
2023/12/27 09:50:08;;;;;;;1.55;1.27;;;;;;;8.89;90.38;100815.94;6301866;28;20483;-71
2023/12/27 09:53:15;;;;;;;1.77;1.30;;;;;;;9.14;90.42;100823.59;6295405;28;20048;-72
2023/12/27 09:56:19;;;;;;;4.10;1.20;;;;;;;9.20;88.96;100809.44;6294437;28;20052;-72
2023/12/27 09:59:29;;;;;;;2.03;1.30;;;;;;;9.42;88.36;100809.34;6295062;28;20058;-74
2023/12/27 10:02:34;;;;;;;5.38;2.00;;;;;;;9.55;86.15;100814.88;6351716;27;20537;-71
2023/12/27 10:05:58;;;;;;;6.45;3.03;;;;;;;9.76;83.32;100818.25;6320232;28;20126;-71
2023/12/27 10:09:00;;;;;;;5.95;2.40;;;;;;;9.61;82.44;100810.22;6320505;28;20052;-72
2023/12/27 10:12:02;;;;;;;5.68;2.47;;;;;;;9.98;81.06;100803.31;6320221;28;20052;-72
2023/12/27 10:15:05;;;;;;;3.35;1.58;;;;;;;10.14;81.13;100819.09;6320161;28;20048;-72
2023/12/27 10:18:08;;;;;;;3.33;1.98;;;;;;;9.71;81.00;100809.81;6321442;28;20511;-70
2023/12/27 10:21:09;;;;;;;3.50;1.58;;;;;;;9.88;81.55;100821.16;6320193;28;20071;-72
2023/12/27 10:24:13;;;;;;;1.95;1.20;;;;;;;9.92;80.42;100816.63;6319719;28;20097;-72
2023/12/27 10:27:16;;;;;;;1.25;1.00;;;;;;;9.86;80.02;100798.69;6323710;22;20420;-86
2023/12/27 10:30:21;;;;;;;2.45;1.40;;;;;;;10.13;78.68;100808.72;6277882;28;20425;-86
2023/12/27 10:33:22;;;;;;;1.65;1.13;;;;;;;9.96;77.94;100815.59;6282698;28;20048;-87
2023/12/27 10:36:25;;;;;;;1.23;1.13;;;;;;;9.95;79.00;100820.88;6287908;28;20052;-80
2023/12/27 10:39:27;;;;;;;2.53;1.33;;;;;;;9.69;79.07;100815.94;6280761;28;20060;-87
2023/12/27 10:42:28;;;;;;;2.75;1.65;;;;;;;9.84;80.40;100826.56;6294974;28;20045;-86
2023/12/27 10:45:29;;;;;;;4.18;1.13;;;;;;;9.86;80.10;100824.75;6277075;28;20056;-79
2023/12/27 10:48:33;;;;;;;3.08;1.27;;;;;;;10.04;79.68;100823.91;6276806;28;20052;-87
2023/12/27 10:51:38;;;;;;;2.33;1.20;;;;;;;10.06;78.53;100823.81;6295826;28;20106;-79
2023/12/27 10:54:46;;;;;;;2.33;1.60;;;;;;;10.23;78.27;100823.03;6294670;28;20520;-87
2023/12/27 10:57:53;;;;;;;4.40;1.67;;;;;;;10.05;79.10;100803.91;6276541;28;20080;-79
2023/12/27 11:00:58;;;;;;;1.42;1.10;;;;;;;10.34;78.47;100809.53;6277100;28;20048;-88
2023/12/27 11:04:00;;;;;;;1.58;1.27;;;;;;;10.16;78.57;100806.00;6276367;28;20131;-79
2023/12/27 11:07:05;;;;;;;2.63;1.10;;;;;;;10.22;76.68;100795.28;6294167;28;20540;-87
2023/12/27 11:10:09;;;;;;;10.43;2.30;;;;;;;10.37;75.83;100793.72;6276668;28;20098;-87
2023/12/27 11:13:11;;;;;;;1.20;0.90;;;;;;;10.54;74.73;100795.50;6267868;28;20041;-85
2023/12/27 11:16:13;;;;;;;3.60;0.95;;;;;;;10.61;73.56;100783.84;6271654;28;20492;-85
2023/12/27 11:19:15;;;;;;;2.37;1.23;;;;;;;10.63;73.78;100763.75;6265935;28;20056;-86
2023/12/27 11:22:16;;;;;;;3.17;1.30;;;;;;;10.54;71.81;100785.06;6268120;28;20051;-80
2023/12/27 11:25:19;;;;;;;2.95;1.20;;;;;;;10.59;70.85;100780.47;6294354;28;20424;-86
2023/12/27 11:28:21;;;;;;;2.58;1.17;;;;;;;10.44;70.19;100767.28;6268164;28;20076;-86
2023/12/27 11:31:21;;;;;;;1.50;1.15;;;;;;;10.68;70.86;100775.63;6268068;28;20049;-80
2023/12/27 11:34:22;;;;;;;1.58;0.80;;;;;;;10.46;70.44;100769.81;6267414;28;20409;-81
2023/12/27 11:37:23;;;;;;;2.72;1.17;;;;;;;10.70;70.37;100762.50;6263090;28;20087;-85
2023/12/27 11:40:34;;;;;;;2.13;1.20;;;;;;;10.73;68.10;100766.72;6270031;28;20053;-86
2023/12/27 11:44:03;;;;;;;4.32;0.95;;;;;;;10.59;66.17;100757.00;6268332;28;20509;-80
2023/12/27 11:47:07;;;;;;;2.42;1.10;;;;;;;10.73;66.30;100757.16;6238612;28;20058;-80
2023/12/27 11:50:16;;;;;;;1.42;1.10;;;;;;;10.73;66.60;100770.19;6244223;28;20118;-85
2023/12/27 11:53:19;;;;;;;2.90;1.38;;;;;;;10.83;66.30;100762.72;6243877;28;20045;-85
2023/12/27 11:56:20;;;;;;;2.70;1.35;;;;;;;10.74;66.25;100774.47;6261204;28;20048;-86
2023/12/27 11:59:28;;;;;;;2.42;1.30;;;;;;;10.89;65.36;100775.47;6269101;28;20052;-88
2023/12/27 12:02:32;;;;;;;5.80;1.30;;;;;;;10.97;65.78;100780.31;6267902;28;20119;-80
2023/12/27 12:06:06;;;;;;;3.15;1.55;;;;;;;11.21;64.11;100780.81;6268109;28;20107;-86
2023/12/27 12:09:07;;;;;;;1.65;1.00;;;;;;;10.90;64.66;100771.94;6263067;28;20051;-87
2023/12/27 12:12:27;;;;;;;2.25;0.90;;;;;;;10.91;64.16;100776.22;6266925;28;20136;-79
2023/12/27 12:15:31;;;;;;;1.20;0.90;;;;;;;11.22;63.92;100782.50;6267583;28;20048;-80
2023/12/27 12:18:34;;;;;;;3.20;1.08;;;;;;;10.96;64.31;100776.03;6256262;28;20089;-80
2023/12/27 12:21:36;;;;;;;3.92;1.20;;;;;;;11.24;64.76;100783.25;6266488;28;20127;-80
2023/12/27 12:24:37;;;;;;;;;;;;;;;11.33;64.77;100798.47;6254574;28;20045;-86
2023/12/27 12:27:42;;;;;;;3.45;1.33;;;;;;;11.20;63.83;100793.03;6271346;28;19971;-85
2023/12/27 12:30:48;;;;;;;1.27;1.10;;;;;;;11.02;61.52;100784.38;6268161;28;20433;-80
2023/12/27 12:33:49;;;;;;;3.17;1.35;;;;;;;10.96;61.35;100797.75;6267973;28;20049;-80
2023/12/27 12:36:52;;;;;;;2.65;1.10;;;;;;;10.93;62.08;100792.66;6265988;28;20079;-80
2023/12/27 12:39:55;;;;;;;2.30;0.95;;;;;;;10.96;62.00;100789.06;6262697;28;20055;-83
2023/12/27 12:42:58;;;;;;;1.10;0.70;;;;;;;11.06;61.93;100783.31;6276424;28;20456;-85
2023/12/27 12:46:01;;;;;;;4.40;1.38;;;;;;;10.97;62.04;100790.75;6256196;28;20049;-81
2023/12/27 12:49:03;;;;;;;;;;;;;;;10.78;61.38;100796.06;6256775;28;20049;-85
2023/12/27 12:52:05;;;;;;;7.85;1.42;;;;;;;11.07;61.34;100792.81;6254364;28;20275;-79
2023/12/27 12:55:07;;;;;;;;;;;;;;;11.18;61.90;100789.66;6245757;28;20448;-81
2023/12/27 12:58:08;;;;;;;4.90;1.60;;;;;;;11.20;61.32;100798.28;6265366;28;20274;-83
2023/12/27 13:01:12;;;;;;;3.17;1.25;;;;;;;11.18;61.84;100801.84;6267054;28;20047;-83
2023/12/27 13:04:13;;;;;;;2.95;1.50;;;;;;;11.34;62.79;100805.38;6269473;28;20081;-83
2023/12/27 13:07:16;;;;;;;3.78;1.90;;;;;;;11.37;62.75;100804.38;6267620;28;20411;-83
2023/12/27 13:10:18;;;;;;;2.75;1.75;;;;;;;11.22;63.82;100804.25;6267365;28;20087;-83
2023/12/27 13:13:19;;;;;;;4.50;1.80;;;;;;;11.05;64.26;100804.25;6265622;28;20056;-82
2023/12/27 13:16:21;;;;;;;3.40;1.10;;;;;;;11.02;64.88;100800.03;6269140;28;20053;-83
2023/12/27 13:19:24;;;;;;;5.63;1.80;;;;;;;11.01;65.96;100800.13;6268888;28;20045;-81
2023/12/27 13:22:25;;;;;;;4.80;1.95;;;;;;;10.82;65.52;100795.00;6268816;28;20297;-81
2023/12/27 13:25:26;;;;;;;7.80;2.58;;;;;;;10.68;66.39;100806.09;6266506;28;20469;-82
2023/12/27 13:28:27;;;;;;;4.53;1.75;;;;;;;10.70;66.43;100806.88;6254706;28;20064;-82
2023/12/27 13:31:28;;;;;;;3.63;2.40;;;;;;;10.46;66.56;100799.34;6231969;28;20419;-80
2023/12/27 13:34:30;;;;;;;4.82;2.80;;;;;;;10.57;66.75;100804.03;6238094;28;20120;-81
2023/12/27 13:37:30;;;;;;;6.40;4.15;;;;;;;10.66;67.72;100819.22;6260697;28;20048;-82
2023/12/27 13:40:34;;;;;;;8.02;4.65;;;;;;;10.54;68.03;100814.59;6247889;28;20045;-81
2023/12/27 13:43:34;;;;;;;8.45;4.95;;;;;;;10.54;69.11;100825.03;6247073;28;20049;-82
2023/12/27 13:46:35;;;;;;;5.85;3.65;;;;;;;10.37;69.43;100825.03;6246936;28;20482;-82
2023/12/27 13:49:39;;;;;;;4.35;2.67;;;;;;;10.37;69.77;100822.41;6248045;28;20057;-81
2023/12/27 13:52:42;;;;;;;5.68;2.80;;;;;;;10.23;71.06;100823.03;6247648;28;20049;-81
2023/12/27 13:55:45;;;;;;;5.13;3.28;;;;;;;10.17;71.43;100825.94;6247769;28;20085;-81
2023/12/27 13:58:49;;;;;;;9.70;4.22;;;;;;;10.04;72.18;100836.94;6247477;28;20493;-80
2023/12/27 14:01:50;;;;;;;4.43;2.47;;;;;;;9.98;73.11;100831.16;6247962;28;20045;-83
2023/12/27 14:04:51;;;;;;;4.57;1.90;;;;;;;9.82;73.17;100805.81;6239674;28;20405;-82
2023/12/27 14:07:55;;;;;;;5.53;1.70;;;;;;;9.80;73.69;100825.03;6244640;28;20049;-81
2023/12/27 14:10:58;;;;;;;4.82;1.92;;;;;;;9.62;74.22;100808.47;6245031;28;20049;-82